createdAt,value
2022-10-24T00:01:44.145Z,100740.48
2022-10-24T00:04:12.881Z,100737.66
2022-10-24T00:06:41.653Z,100732.93
2022-10-24T00:09:10.355Z,100731.98
2022-10-24T00:11:38.897Z,100731.59
2022-10-24T00:14:07.422Z,100736.88
2022-10-24T00:16:35.784Z,100737.92
2022-10-24T00:19:05.060Z,100737.96
2022-10-24T00:21:33.471Z,100741.30
2022-10-24T00:24:01.885Z,100738.13
2022-10-24T00:26:30.561Z,100740.58
2022-10-24T00:28:58.889Z,100741.58
2022-10-24T00:31:27.733Z,100744.39
2022-10-24T00:33:56.429Z,100742.45
2022-10-24T00:36:25.798Z,100742.14
2022-10-24T00:38:54.322Z,100748.55
2022-10-24T00:41:26.255Z,100758.65
2022-10-24T00:44:15.846Z,100755.06
2022-10-24T00:46:47.003Z,100754.37
2022-10-24T00:49:18.465Z,100749.95
2022-10-24T00:51:48.847Z,100744.52
2022-10-24T00:54:17.419Z,100739.17
2022-10-24T00:56:53.862Z,100734.62
2022-10-24T00:59:22.504Z,100733.14
2022-10-24T01:01:50.835Z,100727.23
2022-10-24T01:04:19.354Z,100720.89
2022-10-24T01:06:53.683Z,100712.05
2022-10-24T01:09:48.922Z,100710.34
2022-10-24T01:12:25.486Z,100706.91
2022-10-24T01:15:01.920Z,100708.11
2022-10-24T01:17:35.565Z,100708.46
2022-10-24T01:20:33.841Z,100707.90
2022-10-24T01:23:12.106Z,100704.83
2022-10-24T01:25:46.519Z,100700.73
2022-10-24T01:28:16.211Z,100698.70
2022-10-24T01:30:47.422Z,100699.84
2022-10-24T01:33:20.613Z,100697.48
2022-10-24T01:35:53.084Z,100689.61
2022-10-24T01:38:26.882Z,100683.36
2022-10-24T01:40:57.823Z,100680.67
2022-10-24T01:43:28.741Z,100684.77
2022-10-24T01:46:02.128Z,100689.14
2022-10-24T01:48:33.870Z,100683.05
2022-10-24T01:51:04.406Z,100684.89
2022-10-24T01:53:33.256Z,100679.46
2022-10-24T01:56:01.684Z,100676.31
2022-10-24T01:58:30.286Z,100674.06
2022-10-24T02:01:02.253Z,100675.40
2022-10-24T02:03:33.786Z,100675.04
2022-10-24T02:06:06.452Z,100673.52
2022-10-24T02:08:38.351Z,100669.96
2022-10-24T02:11:07.911Z,100657.41
2022-10-24T02:13:44.559Z,100644.54
2022-10-24T02:16:14.729Z,100639.38
2022-10-24T02:18:43.214Z,100633.64
2022-10-24T02:21:19.641Z,100628.02
2022-10-24T02:23:54.548Z,100626.00
2022-10-24T02:26:32.787Z,100626.04
2022-10-24T02:29:07.054Z,100623.33
2022-10-24T02:31:36.611Z,100628.45
2022-10-24T02:34:07.055Z,100626.63
2022-10-24T02:36:36.403Z,100626.15
2022-10-24T02:39:06.646Z,100627.14
2022-10-24T02:41:37.725Z,100631.45
2022-10-24T02:44:09.587Z,100635.52
2022-10-24T02:46:38.845Z,100631.17
2022-10-24T02:49:07.887Z,100635.47
2022-10-24T02:51:39.427Z,100637.67
2022-10-24T02:54:08.136Z,100638.95
2022-10-24T02:56:39.344Z,100635.96
2022-10-24T03:01:41.599Z,100631.95
2022-10-24T03:04:10.325Z,100630.26
2022-10-24T03:06:38.667Z,100624.98
2022-10-24T03:09:07.382Z,100623.13
2022-10-24T03:11:37.009Z,100620.55
2022-10-24T03:14:06.071Z,100615.86
2022-10-24T03:16:34.657Z,100611.95
2022-10-24T03:19:03.091Z,100611.58
2022-10-24T03:21:31.485Z,100614.07
2022-10-24T03:24:00.311Z,100616.52
2022-10-24T03:26:28.713Z,100618.34
2022-10-24T03:28:57.093Z,100615.20
2022-10-24T03:31:25.572Z,100607.79
2022-10-24T03:33:54.683Z,100602.36
2022-10-24T03:36:23.012Z,100599.08
2022-10-24T03:38:51.683Z,100603.06
2022-10-24T03:41:20.433Z,100607.71
2022-10-24T03:43:48.859Z,100605.27
2022-10-24T03:46:17.592Z,100602.90
2022-10-24T03:48:46.076Z,100601.41
2022-10-24T03:51:14.935Z,100597.79
2022-10-24T03:53:43.591Z,100593.06
2022-10-24T03:56:11.912Z,100590.62
2022-10-24T03:58:40.206Z,100588.55
2022-10-24T04:01:16.441Z,100581.30
2022-10-24T04:03:45.369Z,100576.86
2022-10-24T04:06:14.543Z,100578.05
2022-10-24T04:08:43.115Z,100581.03
2022-10-24T04:11:11.533Z,100585.11
2022-10-24T04:13:40.526Z,100585.88
2022-10-24T04:16:09.391Z,100583.56
2022-10-24T04:18:38.007Z,100583.48
2022-10-24T04:21:06.897Z,100578.48
2022-10-24T04:23:40.779Z,100569.52
2022-10-24T04:26:09.873Z,100562.62
2022-10-24T04:28:38.472Z,100560.13
2022-10-24T04:31:06.961Z,100554.48
2022-10-24T04:33:44.069Z,100551.95
2022-10-24T04:36:12.681Z,100552.71
2022-10-24T04:38:42.135Z,100548.33
2022-10-24T04:41:12.146Z,100540.17
2022-10-24T04:43:41.315Z,100530.49
2022-10-24T04:46:10.153Z,100530.14
2022-10-24T04:48:38.624Z,100519.30
2022-10-24T04:51:07.454Z,100513.52
2022-10-24T04:53:36.231Z,100511.79
2022-10-24T04:56:06.127Z,100514.98
2022-10-24T04:58:34.586Z,100510.67
2022-10-24T05:01:03.561Z,100506.80
2022-10-24T05:03:32.169Z,100502.86
2022-10-24T05:06:00.667Z,100500.54
2022-10-24T05:08:29.136Z,100502.48
2022-10-24T05:10:57.557Z,100498.43
2022-10-24T05:13:26.297Z,100496.33
2022-10-24T05:15:55.208Z,100495.02
2022-10-24T05:18:23.599Z,100491.05
2022-10-24T05:20:52.222Z,100489.84
2022-10-24T05:23:20.596Z,100488.53
2022-10-24T05:25:49.135Z,100487.79
2022-10-24T05:28:17.697Z,100488.46
2022-10-24T05:30:46.512Z,100486.84
2022-10-24T05:33:14.879Z,100479.24
2022-10-24T05:35:43.516Z,100478.77
2022-10-24T05:38:12.133Z,100471.12
2022-10-24T05:40:40.539Z,100467.40
2022-10-24T05:43:08.957Z,100470.36
2022-10-24T05:45:37.386Z,100475.14
2022-10-24T05:48:06.940Z,100486.64
2022-10-24T05:50:35.892Z,100495.92
2022-10-24T05:53:08.084Z,100497.52
2022-10-24T05:55:36.494Z,100498.73
2022-10-24T05:58:04.953Z,100495.99
2022-10-24T06:00:34.552Z,100488.91
2022-10-24T06:03:04.953Z,100487.98
2022-10-24T06:05:33.411Z,100482.95
2022-10-24T06:08:01.867Z,100485.62
2022-10-24T06:10:30.516Z,100491.52
2022-10-24T06:12:58.991Z,100497.41
2022-10-24T06:15:27.589Z,100508.77
2022-10-24T06:18:01.393Z,100513.02
2022-10-24T06:20:30.227Z,100518.61
2022-10-24T06:22:58.640Z,100518.32
2022-10-24T06:25:27.162Z,100510.23
2022-10-24T06:27:57.572Z,100508.70
2022-10-24T06:30:26.388Z,100505.46
2022-10-24T06:32:54.832Z,100509.21
2022-10-24T06:35:23.156Z,100504.31
2022-10-24T06:37:53.257Z,100503.73
2022-10-24T06:40:22.198Z,100505.41
2022-10-24T06:42:50.645Z,100496.82
2022-10-24T06:45:22.227Z,100492.66
2022-10-24T06:47:54.092Z,100486.63
2022-10-24T06:50:25.642Z,100481.98
2022-10-24T06:52:54.411Z,100480.05
2022-10-24T06:55:24.205Z,100488.98
2022-10-24T06:57:54.315Z,100505.23
2022-10-24T07:00:23.132Z,100525.02
2022-10-24T07:02:51.469Z,100535.79
2022-10-24T07:05:20.383Z,100537.39
2022-10-24T07:07:48.852Z,100542.55
2022-10-24T07:10:17.300Z,100546.00
2022-10-24T07:12:46.325Z,100544.31
2022-10-24T07:15:15.146Z,100547.55
2022-10-24T07:17:45.152Z,100546.22
2022-10-24T07:20:14.862Z,100548.81
2022-10-24T07:22:45.144Z,100553.16
2022-10-24T07:25:14.201Z,100559.88
2022-10-24T07:27:42.879Z,100568.20
2022-10-24T07:30:17.458Z,100572.08
2022-10-24T07:32:46.220Z,100572.45
2022-10-24T07:35:15.181Z,100556.05
2022-10-24T07:37:43.872Z,100549.80
2022-10-24T07:40:13.508Z,100554.55
2022-10-24T07:42:42.030Z,100550.42
2022-10-24T07:45:11.868Z,100535.20
2022-10-24T07:47:40.505Z,100526.84
2022-10-24T07:50:10.258Z,100516.31
2022-10-24T07:52:38.717Z,100506.31
2022-10-24T07:55:08.814Z,100504.42
2022-10-24T07:57:37.261Z,100503.89
2022-10-24T08:00:07.826Z,100507.27
2022-10-24T08:02:36.469Z,100514.80
2022-10-24T08:05:06.048Z,100522.16
2022-10-24T08:07:36.735Z,100520.83
2022-10-24T08:10:09.735Z,100510.02
2022-10-24T08:12:39.281Z,100508.55
2022-10-24T08:15:09.216Z,100509.67
2022-10-24T08:17:37.664Z,100508.77
2022-10-24T08:20:08.266Z,100498.84
2022-10-24T08:22:36.932Z,100497.16
2022-10-24T08:25:09.327Z,100490.73
2022-10-24T08:27:37.815Z,100490.10
2022-10-24T08:30:08.317Z,100497.27
2022-10-24T08:32:37.737Z,100493.85
2022-10-24T08:35:08.768Z,100490.80
2022-10-24T08:40:15.099Z,100494.25
2022-10-24T08:42:44.362Z,100495.04
2022-10-24T08:45:17.692Z,100491.66
2022-10-24T08:47:51.471Z,100489.85
2022-10-24T08:50:24.389Z,100497.45
2022-10-24T08:52:58.700Z,100501.17
2022-10-24T08:55:47.981Z,100506.83
2022-10-24T08:58:20.137Z,100501.33
2022-10-24T09:00:50.890Z,100502.58
2022-10-24T09:03:31.447Z,100504.36
2022-10-24T09:06:17.712Z,100498.29
2022-10-24T09:08:51.227Z,100496.95
2022-10-24T09:11:24.500Z,100495.94
2022-10-24T09:13:52.766Z,100496.10
2022-10-24T09:16:23.817Z,100501.75
2022-10-24T09:18:54.516Z,100503.59
2022-10-24T09:21:23.612Z,100495.09
2022-10-24T09:23:52.555Z,100493.09
2022-10-24T09:26:26.610Z,100487.58
2022-10-24T09:28:56.410Z,100483.84
2022-10-24T09:31:26.601Z,100482.77
2022-10-24T09:33:59.730Z,100485.56
2022-10-24T09:36:30.510Z,100482.39
2022-10-24T09:39:23.898Z,100482.40
2022-10-24T09:41:52.575Z,100481.35
2022-10-24T09:44:37.039Z,100482.04
2022-10-24T09:47:09.005Z,100475.27
2022-10-24T09:49:40.804Z,100469.58
2022-10-24T09:52:18.019Z,100468.00
2022-10-24T09:54:47.226Z,100467.48
2022-10-24T09:57:17.573Z,100465.65
2022-10-24T09:59:48.108Z,100471.01
2022-10-24T10:02:34.300Z,100470.09
2022-10-24T10:05:18.617Z,100474.39
2022-10-24T10:07:48.341Z,100468.10
2022-10-24T10:10:34.140Z,100463.64
2022-10-24T10:13:19.448Z,100459.02
2022-10-24T10:15:49.932Z,100466.59
2022-10-24T10:18:31.567Z,100467.79
2022-10-24T10:21:09.822Z,100464.40
2022-10-24T10:23:41.386Z,100459.11
2022-10-24T10:26:19.556Z,100459.13
2022-10-24T10:28:54.318Z,100460.87
2022-10-24T10:31:26.747Z,100463.65
2022-10-24T10:34:14.111Z,100461.09
2022-10-24T10:37:04.214Z,100462.80
2022-10-24T10:39:47.752Z,100455.20
2022-10-24T10:42:19.085Z,100453.75
2022-10-24T10:44:57.005Z,100451.17
2022-10-24T10:47:35.389Z,100442.52
2022-10-24T10:52:56.357Z,100450.19
2022-10-24T10:55:31.765Z,100454.79
2022-10-24T10:58:13.039Z,100457.14
2022-10-24T11:00:46.484Z,100460.77
2022-10-24T11:03:33.998Z,100457.67
2022-10-24T11:06:14.297Z,100461.48
2022-10-24T11:09:32.224Z,100463.30
2022-10-24T11:12:09.714Z,100455.51
2022-10-24T11:14:39.890Z,100456.18
2022-10-24T11:17:13.182Z,100457.06
2022-10-24T11:19:47.763Z,100460.20
2022-10-24T11:22:21.103Z,100458.86
2022-10-24T11:24:57.426Z,100456.52
2022-10-24T11:27:30.124Z,100452.79
2022-10-24T11:30:04.571Z,100452.73
2022-10-24T11:32:36.683Z,100453.69
2022-10-24T11:35:09.751Z,100450.91
2022-10-24T11:37:40.374Z,100453.56
2022-10-24T11:40:13.675Z,100451.95
2022-10-24T11:42:47.373Z,100449.55
2022-10-24T11:45:18.312Z,100445.93
2022-10-24T11:47:55.900Z,100438.30
2022-10-24T11:50:31.139Z,100434.98
2022-10-24T11:53:04.577Z,100440.59
2022-10-24T11:55:38.325Z,100441.61
2022-10-24T11:58:08.580Z,100436.27
2022-10-24T12:01:11.276Z,100435.98
2022-10-24T12:03:58.063Z,100431.50
2022-10-24T12:06:43.754Z,100430.21
2022-10-24T12:09:40.640Z,100429.36
2022-10-24T12:12:19.628Z,100424.59
2022-10-24T12:14:59.842Z,100420.36
2022-10-24T12:17:40.237Z,100419.66
2022-10-24T12:20:15.305Z,100417.96
2022-10-24T12:22:44.969Z,100415.64
2022-10-24T12:25:23.423Z,100407.65
2022-10-24T12:27:56.078Z,100402.34
2022-10-24T12:30:27.000Z,100397.42
2022-10-24T12:32:58.140Z,100393.07
2022-10-24T12:35:38.145Z,100393.17
2022-10-24T12:38:16.688Z,100392.02
2022-10-24T12:40:56.153Z,100388.34
2022-10-24T12:43:35.783Z,100378.71
2022-10-24T12:46:37.443Z,100379.44
2022-10-24T12:49:26.340Z,100383.02
2022-10-24T12:51:55.755Z,100382.81
2022-10-24T12:54:38.976Z,100386.59
2022-10-24T12:57:25.578Z,100384.33
2022-10-24T12:59:57.461Z,100379.61
2022-10-24T13:02:50.753Z,100378.53
2022-10-24T13:05:50.909Z,100374.56
2022-10-24T13:08:36.747Z,100365.73
2022-10-24T13:11:12.885Z,100365.75
2022-10-24T13:13:55.011Z,100364.75
2022-10-24T13:16:41.482Z,100361.77
2022-10-24T13:19:16.895Z,100358.21
2022-10-24T13:21:48.250Z,100363.73
2022-10-24T13:24:37.903Z,100366.46
2022-10-24T13:27:25.099Z,100363.26
2022-10-24T13:30:24.669Z,100366.33
2022-10-24T13:33:31.285Z,100362.69
2022-10-24T13:36:14.238Z,100368.33
2022-10-24T13:38:46.106Z,100371.17
2022-10-24T13:41:20.108Z,100370.54
2022-10-24T13:43:51.133Z,100372.80
2022-10-24T13:46:26.855Z,100367.21
2022-10-24T13:48:55.825Z,100369.10
2022-10-24T13:51:28.595Z,100370.14
2022-10-24T13:54:01.360Z,100370.17
2022-10-24T13:56:31.916Z,100368.33
2022-10-24T13:59:00.420Z,100367.09
2022-10-24T14:01:29.984Z,100364.69
2022-10-24T14:04:01.203Z,100366.73
2022-10-24T14:06:31.032Z,100363.62
2022-10-24T14:09:07.157Z,100359.21
2022-10-24T14:11:40.756Z,100359.23
2022-10-24T14:14:24.085Z,100360.98
2022-10-24T14:17:06.511Z,100359.00
2022-10-24T14:19:38.776Z,100355.80
2022-10-24T14:22:20.058Z,100359.47
2022-10-24T14:24:50.025Z,100360.05
2022-10-24T14:27:20.002Z,100357.59
2022-10-24T14:29:57.711Z,100354.11
2022-10-24T14:32:27.961Z,100356.29
2022-10-24T14:34:57.856Z,100357.54
2022-10-24T14:37:32.746Z,100359.36
2022-10-24T14:40:01.634Z,100364.86
2022-10-24T14:42:30.865Z,100369.67
2022-10-24T14:44:59.902Z,100371.55
2022-10-24T14:47:31.683Z,100372.10
2022-10-24T14:50:00.757Z,100375.02
2022-10-24T14:52:35.809Z,100378.45
2022-10-24T14:55:06.753Z,100380.52
2022-10-24T14:57:36.500Z,100378.83
2022-10-24T15:00:08.564Z,100379.35
2022-10-24T15:02:42.083Z,100375.52
2022-10-24T15:05:32.593Z,100376.91
2022-10-24T15:08:21.670Z,100382.70
2022-10-24T15:11:03.886Z,100386.07
2022-10-24T15:13:34.216Z,100382.10
2022-10-24T15:16:02.711Z,100380.46
2022-10-24T15:18:35.131Z,100374.32
2022-10-24T15:21:06.904Z,100368.56
2022-10-24T15:23:37.904Z,100371.58
2022-10-24T15:26:11.687Z,100375.10
2022-10-24T15:28:46.534Z,100379.48
2022-10-24T15:31:17.508Z,100382.30
2022-10-24T15:33:48.655Z,100380.93
2022-10-24T15:36:22.628Z,100381.13
2022-10-24T15:38:55.995Z,100377.91
2022-10-24T15:41:24.685Z,100381.43
2022-10-24T15:43:55.547Z,100382.26
2022-10-24T15:46:24.294Z,100385.17
2022-10-24T15:48:52.818Z,100387.36
2022-10-24T15:51:22.927Z,100389.88
2022-10-24T15:53:53.404Z,100390.87
2022-10-24T15:56:23.829Z,100393.42
2022-10-24T15:58:56.817Z,100396.20
2022-10-24T16:01:30.851Z,100395.83
2022-10-24T16:04:00.557Z,100399.15
2022-10-24T16:06:29.696Z,100395.52
2022-10-24T16:08:58.128Z,100390.63
2022-10-24T16:11:26.652Z,100396.57
2022-10-24T16:13:55.847Z,100391.73
2022-10-24T16:16:25.110Z,100387.58
2022-10-24T16:18:54.034Z,100386.56
2022-10-24T16:21:23.660Z,100381.45
2022-10-24T16:23:53.831Z,100381.09
2022-10-24T16:26:22.773Z,100385.36
2022-10-24T16:28:51.203Z,100390.92
2022-10-24T16:31:22.856Z,100392.05
2022-10-24T16:33:52.462Z,100395.25
2022-10-24T16:36:23.848Z,100396.09
2022-10-24T16:38:53.771Z,100399.09
2022-10-24T16:41:23.893Z,100395.95
2022-10-24T16:43:56.116Z,100396.98
2022-10-24T16:46:26.663Z,100398.13
2022-10-24T16:48:57.680Z,100397.52
2022-10-24T16:51:31.596Z,100392.41
2022-10-24T16:54:02.040Z,100390.01
2022-10-24T16:56:30.928Z,100396.32
2022-10-24T16:59:01.044Z,100392.55
2022-10-24T17:01:30.802Z,100396.84
2022-10-24T17:04:00.783Z,100401.19
2022-10-24T17:06:29.507Z,100398.20
2022-10-24T17:08:57.989Z,100399.91
2022-10-24T17:11:44.258Z,100400.41
2022-10-24T17:14:14.580Z,100400.02
2022-10-24T17:16:43.852Z,100400.20
2022-10-24T17:19:16.214Z,100404.61
2022-10-24T17:21:49.789Z,100413.61
2022-10-24T17:24:20.547Z,100412.33
2022-10-24T17:26:50.189Z,100412.29
2022-10-24T17:29:25.390Z,100412.90
2022-10-24T17:31:54.765Z,100409.40
2022-10-24T17:34:23.893Z,100400.17
2022-10-24T17:36:57.660Z,100402.23
2022-10-24T17:39:30.483Z,100402.98
2022-10-24T17:41:59.536Z,100406.36
2022-10-24T17:44:29.016Z,100406.69
2022-10-24T17:46:58.506Z,100398.48
2022-10-24T17:49:27.497Z,100401.35
2022-10-24T17:51:55.927Z,100399.48
2022-10-24T17:54:24.311Z,100398.45
2022-10-24T17:56:52.930Z,100395.95
2022-10-24T17:59:21.749Z,100396.34
2022-10-24T18:01:51.007Z,100396.17
2022-10-24T18:04:19.568Z,100396.36
2022-10-24T18:06:48.741Z,100396.64
2022-10-24T18:09:17.176Z,100400.05
2022-10-24T18:11:47.094Z,100401.77
2022-10-24T18:14:16.094Z,100408.17
2022-10-24T18:16:44.817Z,100405.43
2022-10-24T18:19:13.636Z,100404.56
2022-10-24T18:21:43.347Z,100403.41
2022-10-24T18:24:12.079Z,100399.00
2022-10-24T18:26:43.852Z,100393.27
2022-10-24T18:29:12.522Z,100396.68
2022-10-24T18:31:40.931Z,100398.15
2022-10-24T18:34:10.693Z,100398.30
2022-10-24T18:36:39.996Z,100400.80
2022-10-24T18:39:08.576Z,100396.86
2022-10-24T18:41:44.334Z,100401.02
2022-10-24T18:44:28.363Z,100399.80
2022-10-24T18:47:01.328Z,100396.90
2022-10-24T18:49:33.549Z,100395.32
2022-10-24T18:52:15.919Z,100389.10
2022-10-24T18:54:52.754Z,100390.58
2022-10-24T18:57:24.649Z,100386.21
2022-10-24T18:59:55.834Z,100377.70
2022-10-24T19:02:33.854Z,100376.63
2022-10-24T19:05:15.819Z,100371.18
2022-10-24T19:07:51.040Z,100373.80
2022-10-24T19:10:22.862Z,100372.00
2022-10-24T19:12:52.405Z,100371.48
2022-10-24T19:15:22.547Z,100366.21
2022-10-24T19:17:53.259Z,100365.31
2022-10-24T19:20:23.928Z,100366.77
2022-10-24T19:22:53.212Z,100365.70
2022-10-24T19:25:22.227Z,100363.58
2022-10-24T19:30:26.790Z,100356.96
2022-10-24T19:32:55.830Z,100358.42
2022-10-24T19:35:26.043Z,100354.23
2022-10-24T19:37:57.844Z,100348.27
2022-10-24T19:40:26.599Z,100345.91
2022-10-24T19:42:55.237Z,100344.29
2022-10-24T19:45:25.176Z,100349.04
2022-10-24T19:47:59.238Z,100346.79
2022-10-24T19:50:27.847Z,100350.95
2022-10-24T19:52:57.190Z,100349.24
2022-10-24T19:55:26.567Z,100349.98
2022-10-24T19:57:55.617Z,100350.92
2022-10-24T20:00:25.580Z,100346.86
2022-10-24T20:02:56.002Z,100347.23
2022-10-24T20:05:24.873Z,100353.06
2022-10-24T20:07:53.305Z,100359.98
2022-10-24T20:12:56.673Z,100351.05
2022-10-24T20:15:25.239Z,100357.27
2022-10-24T20:17:53.600Z,100354.83
2022-10-24T20:20:23.753Z,100355.36
2022-10-24T20:22:52.751Z,100354.73
2022-10-24T20:25:21.192Z,100357.36
2022-10-24T20:27:49.973Z,100358.06
2022-10-24T20:30:18.729Z,100366.48
2022-10-24T20:32:47.229Z,100358.13
2022-10-24T20:35:19.968Z,100361.91
2022-10-24T20:37:48.880Z,100363.15
2022-10-24T20:40:18.180Z,100362.60
2022-10-24T20:42:57.277Z,100361.67
2022-10-24T20:45:26.596Z,100360.89
2022-10-24T20:47:57.917Z,100362.76
2022-10-24T20:50:26.587Z,100364.84
2022-10-24T20:52:55.375Z,100368.85
2022-10-24T20:55:39.287Z,100370.46
2022-10-24T20:58:12.815Z,100366.15
2022-10-24T21:03:15.433Z,100364.58
2022-10-24T21:05:43.919Z,100355.81
2022-10-24T21:08:12.332Z,100356.07
2022-10-24T21:10:41.935Z,100361.55
2022-10-24T21:13:10.478Z,100363.16
2022-10-24T21:15:39.978Z,100363.79
2022-10-24T21:18:08.472Z,100369.34
2022-10-24T21:20:37.219Z,100369.83
2022-10-24T21:23:05.841Z,100371.77
2022-10-24T21:25:34.444Z,100372.60
2022-10-24T21:28:02.983Z,100373.60
2022-10-24T21:30:31.485Z,100372.02
2022-10-24T21:33:00.659Z,100375.02
2022-10-24T21:35:30.807Z,100376.09
2022-10-24T21:37:59.185Z,100376.34
2022-10-24T21:40:27.725Z,100378.67
2022-10-24T21:42:56.103Z,100381.39
2022-10-24T21:45:24.554Z,100382.38
2022-10-24T21:47:53.123Z,100382.00
2022-10-24T21:50:21.452Z,100379.80
2022-10-24T21:52:49.974Z,100383.30
2022-10-24T21:55:18.565Z,100384.48
2022-10-24T21:57:46.995Z,100389.12
2022-10-24T22:00:16.603Z,100389.04
2022-10-24T22:02:45.331Z,100392.11
2022-10-24T22:05:14.259Z,100387.63
2022-10-24T22:07:45.011Z,100389.30
2022-10-24T22:10:16.428Z,100393.95
2022-10-24T22:12:45.101Z,100390.42
2022-10-24T22:15:13.437Z,100392.95
2022-10-24T22:17:42.013Z,100396.30
2022-10-24T22:20:11.781Z,100392.48
2022-10-24T22:22:40.131Z,100394.59
2022-10-24T22:25:09.677Z,100390.89
2022-10-24T22:27:38.069Z,100392.48
2022-10-24T22:30:08.885Z,100394.04
2022-10-24T22:32:38.180Z,100390.03
2022-10-24T22:35:11.584Z,100389.65
2022-10-24T22:37:41.171Z,100398.95
2022-10-24T22:40:19.190Z,100403.21
2022-10-24T22:42:48.956Z,100409.45
2022-10-24T22:45:19.179Z,100413.00
2022-10-24T22:48:07.374Z,100413.83
2022-10-24T22:50:50.563Z,100417.35
2022-10-24T22:53:21.696Z,100413.50
2022-10-24T22:56:03.305Z,100417.19
2022-10-24T22:58:33.265Z,100411.25
2022-10-24T23:01:12.694Z,100411.09
2022-10-24T23:04:10.257Z,100413.62
2022-10-24T23:06:44.482Z,100412.95
2022-10-24T23:09:12.052Z,100409.48
2022-10-24T23:11:41.569Z,100411.27
2022-10-24T23:14:11.934Z,100410.44
2022-10-24T23:16:44.612Z,100414.60
2022-10-24T23:19:20.400Z,100419.84
2022-10-24T23:21:52.522Z,100419.97
2022-10-24T23:24:21.607Z,100419.67
2022-10-24T23:27:03.712Z,100417.15
2022-10-24T23:29:33.853Z,100420.63
2022-10-24T23:32:04.243Z,100422.95
2022-10-24T23:34:34.433Z,100419.48
2022-10-24T23:37:04.358Z,100414.80
2022-10-24T23:39:35.662Z,100416.45
2022-10-24T23:42:05.250Z,100413.99
2022-10-24T23:44:35.438Z,100419.50
2022-10-24T23:47:10.580Z,100420.44
2022-10-24T23:49:42.582Z,100415.06
2022-10-24T23:52:17.853Z,100419.57
2022-10-24T23:54:47.654Z,100420.38
2022-10-24T23:57:19.240Z,100416.05
2022-10-24T23:59:47.802Z,100417.84
